createdAt,value
2022-12-23T00:01:16.064Z,82.06
2022-12-23T00:11:20.162Z,83.03
2022-12-23T00:21:22.590Z,82.61
2022-12-23T00:31:25.478Z,82.26
2022-12-23T00:41:46.141Z,82.17
2022-12-23T00:51:48.355Z,82.54
2022-12-23T01:02:09.092Z,81.50
2022-12-23T01:12:11.456Z,82.17
2022-12-23T01:22:13.649Z,83.28
2022-12-23T01:32:15.833Z,82.78
2022-12-23T01:42:38.956Z,82.51
2022-12-23T01:53:02.987Z,83.43
2022-12-23T02:03:27.363Z,83.91
2022-12-23T02:13:39.216Z,84.34
2022-12-23T02:24:24.513Z,85.12
2022-12-23T02:34:29.584Z,83.86
2022-12-23T02:45:01.981Z,84.37
2022-12-23T02:55:10.856Z,86.00
2022-12-23T03:05:41.273Z,85.45
2022-12-23T03:15:50.588Z,86.54
2022-12-23T03:26:16.516Z,86.41
2022-12-23T03:36:24.857Z,86.46
2022-12-23T03:46:37.877Z,85.09
2022-12-23T03:56:47.348Z,85.45
2022-12-23T04:06:57.516Z,85.60
2022-12-23T04:16:59.828Z,83.13
2022-12-23T04:27:01.975Z,83.17
2022-12-23T04:37:04.157Z,83.57
2022-12-23T04:47:06.424Z,84.90
2022-12-23T04:57:08.687Z,82.95
2022-12-23T05:07:10.961Z,80.22
2022-12-23T05:17:13.106Z,80.03
2022-12-23T05:27:15.307Z,80.23
2022-12-23T05:37:17.474Z,79.24
2022-12-23T05:47:19.628Z,78.40
2022-12-23T05:57:22.055Z,78.36
2022-12-23T06:07:24.269Z,78.51
2022-12-23T06:17:27.102Z,78.70
2022-12-23T06:27:29.337Z,79.32
2022-12-23T06:37:31.528Z,79.72
2022-12-23T06:47:33.746Z,79.68
2022-12-23T06:57:35.946Z,78.46
2022-12-23T07:07:38.213Z,77.63
2022-12-23T07:17:41.015Z,77.22
2022-12-23T07:27:43.225Z,77.72
2022-12-23T07:37:45.778Z,77.63
2022-12-23T07:47:47.972Z,76.22
2022-12-23T07:57:51.384Z,74.60
2022-12-23T08:07:53.648Z,74.44
2022-12-23T08:17:56.755Z,74.74
2022-12-23T08:27:58.906Z,74.67
2022-12-23T08:38:01.067Z,74.89
2022-12-23T08:48:03.753Z,74.67
2022-12-23T08:58:06.365Z,74.86
2022-12-23T09:08:09.437Z,73.41
2022-12-23T09:18:12.327Z,70.79
2022-12-23T09:28:14.538Z,74.17
2022-12-23T09:38:17.050Z,77.04
2022-12-23T09:48:22.898Z,76.20
2022-12-23T09:59:00.084Z,75.08
2022-12-23T10:09:05.131Z,74.72
2022-12-23T10:19:12.385Z,74.06
2022-12-23T10:29:23.516Z,74.75
2022-12-23T10:39:40.867Z,72.69
2022-12-23T10:50:26.285Z,72.01
2022-12-23T11:00:29.757Z,72.21
2022-12-23T11:10:33.548Z,71.75
2022-12-23T11:20:37.285Z,70.98
2022-12-23T11:30:55.245Z,70.21
2022-12-23T11:40:58.947Z,71.62
2022-12-23T11:51:04.049Z,70.90
2022-12-23T12:01:14.933Z,69.78
2022-12-23T12:11:19.293Z,68.55
2022-12-23T12:21:28.443Z,69.86
2022-12-23T12:31:45.617Z,69.65
2022-12-23T12:41:58.525Z,72.28
2022-12-23T12:52:14.281Z,74.48
2022-12-23T13:02:28.491Z,74.34
2022-12-23T13:12:53.216Z,74.86
2022-12-23T13:23:26.979Z,73.64
2022-12-23T13:33:55.769Z,73.94
2022-12-23T13:44:18.931Z,74.43
2022-12-23T13:54:42.481Z,75.03
2022-12-23T14:04:59.172Z,76.15
2022-12-23T14:15:22.715Z,77.10
2022-12-23T14:25:53.723Z,77.95
2022-12-23T14:36:13.159Z,77.04
2022-12-23T14:46:34.044Z,75.95
2022-12-23T14:56:39.053Z,76.74
2022-12-23T15:06:45.277Z,76.86
2022-12-23T15:16:47.570Z,76.80
2022-12-23T15:27:24.587Z,76.86
2022-12-23T15:37:24.978Z,77.07
2022-12-23T15:47:36.593Z,76.56
2022-12-23T15:57:50.040Z,77.23
2022-12-23T16:08:14.147Z,77.85
2022-12-23T16:18:19.325Z,78.58
2022-12-23T16:28:26.632Z,78.74
2022-12-23T16:38:30.135Z,77.09
2022-12-23T16:48:42.345Z,78.05
2022-12-23T16:58:45.070Z,77.55
2022-12-23T17:08:47.955Z,78.18
2022-12-23T17:18:53.130Z,77.78
2022-12-23T17:28:55.957Z,76.96
2022-12-23T17:38:58.173Z,76.79
2022-12-23T17:49:00.356Z,75.79
2022-12-23T17:59:02.508Z,76.12
2022-12-23T18:09:04.674Z,76.01
2022-12-23T18:19:16.578Z,75.80
2022-12-23T18:29:18.837Z,76.33
2022-12-23T18:39:21.230Z,76.18
2022-12-23T18:49:23.507Z,76.28
2022-12-23T18:59:29.920Z,76.67
2022-12-23T19:09:32.559Z,76.66
2022-12-23T19:19:34.790Z,76.93
2022-12-23T19:29:36.954Z,76.51
2022-12-23T19:39:41.044Z,75.52
2022-12-23T19:49:43.367Z,74.87
2022-12-23T19:59:45.672Z,74.60
2022-12-23T20:09:47.870Z,75.45
2022-12-23T20:19:50.069Z,77.09
2022-12-23T20:29:52.243Z,78.32
2022-12-23T20:39:54.475Z,79.54
2022-12-23T20:49:56.720Z,79.98
2022-12-23T20:59:58.908Z,80.40
2022-12-23T21:10:01.097Z,80.72
2022-12-23T21:20:07.704Z,80.66
2022-12-23T21:40:12.224Z,81.69
2022-12-23T21:50:14.490Z,81.54
2022-12-23T22:00:16.839Z,81.97
2022-12-23T22:10:19.061Z,82.32
2022-12-23T22:20:21.468Z,82.35
2022-12-23T22:30:23.655Z,81.87
2022-12-23T22:40:25.914Z,83.55
2022-12-23T22:50:28.077Z,82.10
2022-12-23T23:00:30.339Z,82.26
2022-12-23T23:10:32.516Z,82.60
2022-12-23T23:20:34.696Z,81.40
2022-12-23T23:30:36.909Z,83.63
2022-12-23T23:40:39.445Z,89.04
2022-12-23T23:50:41.913Z,89.02
